createdAt,value
2023-04-15T00:01:02.659Z,6.57
2023-04-15T00:03:35.089Z,6.07
2023-04-15T00:06:08.583Z,5.80
2023-04-15T00:08:40.499Z,5.87
2023-04-15T00:11:12.524Z,6.10
2023-04-15T00:13:44.265Z,6.70
2023-04-15T00:16:17.487Z,5.73
2023-04-15T00:18:49.407Z,5.47
2023-04-15T00:21:22.390Z,6.07
2023-04-15T00:23:54.231Z,6.13
2023-04-15T00:26:26.164Z,6.27
2023-04-15T00:28:58.417Z,5.10
2023-04-15T00:31:30.986Z,5.67
2023-04-15T00:34:03.630Z,6.67
2023-04-15T00:36:37.617Z,5.70
2023-04-15T00:39:09.518Z,5.87
2023-04-15T00:41:41.097Z,6.83
2023-04-15T00:44:12.751Z,5.70
2023-04-15T00:46:45.615Z,5.53
2023-04-15T00:49:18.338Z,8.00
2023-04-15T00:51:51.354Z,6.10
2023-04-15T00:54:23.296Z,6.03
2023-04-15T00:56:55.246Z,5.80
2023-04-15T00:59:27.283Z,7.43
2023-04-15T01:01:59.189Z,5.60
2023-04-15T01:04:32.044Z,6.93
2023-04-15T01:07:05.899Z,6.00
2023-04-15T01:09:36.671Z,6.10
2023-04-15T01:12:11.299Z,6.03
2023-04-15T01:14:43.172Z,6.43
2023-04-15T01:17:14.818Z,6.57
2023-04-15T01:19:46.671Z,8.03
2023-04-15T01:22:21.032Z,6.80
2023-04-15T01:25:04.693Z,6.60
2023-04-15T01:27:39.963Z,6.83
2023-04-15T01:30:14.591Z,7.87
2023-04-15T01:32:46.557Z,7.53
2023-04-15T01:35:18.468Z,9.83
2023-04-15T01:37:50.375Z,8.00
2023-04-15T01:40:22.769Z,10.37
2023-04-15T01:42:55.969Z,8.50
2023-04-15T01:45:27.582Z,11.23
2023-04-15T01:47:59.489Z,10.83
2023-04-15T01:50:31.467Z,9.73
2023-04-15T01:53:03.632Z,11.23
2023-04-15T01:55:35.545Z,10.03
2023-04-15T01:58:08.542Z,11.00
2023-04-15T02:00:40.536Z,11.37
2023-04-15T02:03:13.236Z,11.70
2023-04-15T02:05:46.830Z,11.10
2023-04-15T02:08:18.643Z,11.40
2023-04-15T02:10:50.803Z,9.90
2023-04-15T02:13:23.719Z,12.03
2023-04-15T02:15:56.360Z,12.30
2023-04-15T02:18:28.241Z,12.13
2023-04-15T02:20:59.943Z,12.73
2023-04-15T02:23:31.713Z,12.47
2023-04-15T02:26:03.514Z,13.33
2023-04-15T02:28:36.772Z,12.60
2023-04-15T02:31:10.873Z,14.27
2023-04-15T02:33:42.729Z,15.10
2023-04-15T02:36:14.616Z,13.57
2023-04-15T02:38:46.418Z,13.93
2023-04-15T02:41:18.696Z,15.30
2023-04-15T02:43:52.412Z,12.57
2023-04-15T02:46:24.327Z,13.33
2023-04-15T02:48:56.056Z,13.13
2023-04-15T02:51:31.465Z,14.57
2023-04-15T02:54:03.414Z,14.87
2023-04-15T02:56:35.436Z,15.67
2023-04-15T02:59:09.106Z,15.13
2023-04-15T03:01:41.177Z,13.17
2023-04-15T03:04:13.693Z,15.20
2023-04-15T03:06:45.356Z,13.10
2023-04-15T03:09:17.160Z,14.67
2023-04-15T03:11:49.207Z,14.63
2023-04-15T03:14:22.981Z,13.93
2023-04-15T03:16:54.788Z,14.73
2023-04-15T03:19:26.752Z,15.73
2023-04-15T03:21:58.601Z,16.20
2023-04-15T03:24:31.450Z,16.87
2023-04-15T03:27:03.365Z,15.33
2023-04-15T03:29:36.316Z,16.20
2023-04-15T03:32:08.008Z,17.13
2023-04-15T03:34:39.916Z,17.03
2023-04-15T03:37:11.861Z,18.60
2023-04-15T03:39:43.658Z,18.00
2023-04-15T03:42:15.639Z,19.73
2023-04-15T03:44:48.847Z,17.30
2023-04-15T03:47:20.966Z,18.77
2023-04-15T03:49:52.527Z,20.40
2023-04-15T03:52:24.543Z,21.07
2023-04-15T03:54:56.337Z,20.43
2023-04-15T03:57:28.179Z,23.80
2023-04-15T04:00:01.358Z,21.67
2023-04-15T04:02:33.485Z,20.27
2023-04-15T04:05:05.709Z,21.50
2023-04-15T04:07:37.547Z,20.90
2023-04-15T04:10:11.435Z,21.23
2023-04-15T04:12:43.432Z,22.43
2023-04-15T04:15:17.099Z,23.47
2023-04-15T04:17:49.007Z,24.07
2023-04-15T04:20:21.189Z,22.70
2023-04-15T04:22:53.112Z,24.37
2023-04-15T04:25:24.912Z,24.50
2023-04-15T04:27:56.793Z,27.17
2023-04-15T04:30:30.321Z,24.57
2023-04-15T04:33:02.087Z,27.60
2023-04-15T04:35:34.972Z,25.23
2023-04-15T04:38:06.813Z,26.97
2023-04-15T04:40:38.682Z,28.67
2023-04-15T04:43:10.694Z,32.33
2023-04-15T04:45:43.872Z,31.50
2023-04-15T04:48:15.723Z,27.33
2023-04-15T04:50:48.029Z,30.43
2023-04-15T04:53:20.486Z,28.03
2023-04-15T04:55:52.261Z,28.03
2023-04-15T04:58:24.136Z,28.40
2023-04-15T05:00:57.516Z,26.77
2023-04-15T05:03:29.940Z,28.43
2023-04-15T05:06:03.055Z,29.33
2023-04-15T05:08:34.937Z,27.00
2023-04-15T05:11:07.270Z,28.30
2023-04-15T05:13:39.600Z,26.80
2023-04-15T05:16:12.878Z,28.80
2023-04-15T05:18:44.789Z,28.53
2023-04-15T05:21:16.648Z,25.17
2023-04-15T05:23:48.478Z,27.77
2023-04-15T05:26:21.619Z,27.57
2023-04-15T05:28:53.791Z,26.17
2023-04-15T05:31:26.768Z,23.50
2023-04-15T05:33:59.166Z,28.43
2023-04-15T05:36:31.409Z,26.23
2023-04-15T05:39:03.148Z,25.87
2023-04-15T05:41:36.021Z,22.97
2023-04-15T05:44:07.709Z,22.33
2023-04-15T05:46:40.823Z,21.20
2023-04-15T05:49:12.510Z,20.10
2023-04-15T05:51:44.285Z,19.03
2023-04-15T05:54:17.719Z,20.87
2023-04-15T05:56:51.214Z,18.83
2023-04-15T05:59:23.034Z,19.67
2023-04-15T06:01:56.374Z,20.13
2023-04-15T06:04:28.147Z,19.10
2023-04-15T06:06:59.894Z,18.33
2023-04-15T06:09:31.767Z,18.77
2023-04-15T06:12:04.595Z,17.00
2023-04-15T06:14:36.234Z,16.20
2023-04-15T06:17:09.557Z,15.87
2023-04-15T06:19:41.410Z,16.40
2023-04-15T06:22:13.237Z,15.50
2023-04-15T06:24:45.282Z,16.63
2023-04-15T06:27:17.103Z,17.40
2023-04-15T06:29:48.799Z,16.53
2023-04-15T06:32:21.797Z,16.57
2023-04-15T06:34:53.742Z,14.07
2023-04-15T06:37:25.553Z,14.97
2023-04-15T06:39:57.402Z,14.10
2023-04-15T06:42:29.357Z,13.27
2023-04-15T06:45:01.384Z,14.50
2023-04-15T06:47:34.604Z,13.20
2023-04-15T06:50:06.606Z,14.27
2023-04-15T06:52:38.463Z,12.57
2023-04-15T06:55:12.351Z,14.20
2023-04-15T06:57:45.775Z,13.17
2023-04-15T07:00:18.761Z,13.33
2023-04-15T07:02:51.947Z,12.20
2023-04-15T07:05:23.697Z,12.20
2023-04-15T07:07:55.829Z,12.10
2023-04-15T07:10:27.435Z,10.90
2023-04-15T07:12:59.271Z,10.97
2023-04-15T07:15:31.193Z,11.10
2023-04-15T07:18:04.450Z,11.07
2023-04-15T07:20:36.639Z,13.53
2023-04-15T07:23:08.233Z,11.70
2023-04-15T07:25:40.292Z,11.77
2023-04-15T07:28:11.961Z,10.50
2023-04-15T07:30:43.886Z,10.73
2023-04-15T07:33:17.113Z,10.13
2023-04-15T07:35:49.044Z,10.50
2023-04-15T07:38:20.898Z,10.90
2023-04-15T07:40:52.737Z,11.13
2023-04-15T07:43:24.603Z,9.77
2023-04-15T07:45:56.648Z,9.07
2023-04-15T07:48:29.650Z,9.83
2023-04-15T07:51:03.458Z,8.97
2023-04-15T07:53:35.615Z,10.93
2023-04-15T07:56:10.219Z,10.73
2023-04-15T07:58:42.448Z,8.23
2023-04-15T08:01:16.050Z,9.27
2023-04-15T08:03:49.175Z,8.13
2023-04-15T08:06:20.845Z,8.43
2023-04-15T08:08:52.943Z,8.53
2023-04-15T08:11:24.914Z,7.27
2023-04-15T08:13:58.191Z,8.43
2023-04-15T08:16:30.580Z,6.80
2023-04-15T08:19:03.932Z,8.63
2023-04-15T08:21:35.900Z,6.97
2023-04-15T08:24:11.345Z,7.63
2023-04-15T08:26:43.201Z,6.13
2023-04-15T08:29:14.972Z,7.13
2023-04-15T08:31:47.668Z,6.30
2023-04-15T08:34:20.903Z,6.40
2023-04-15T08:36:52.566Z,7.00
2023-04-15T08:39:26.036Z,6.70
2023-04-15T08:42:05.606Z,5.97
2023-04-15T08:44:41.159Z,6.80
2023-04-15T08:47:18.881Z,7.27
2023-04-15T08:49:55.806Z,6.10
2023-04-15T08:52:28.820Z,6.47
2023-04-15T08:55:03.578Z,6.73
2023-04-15T08:57:36.957Z,6.33
2023-04-15T09:00:12.454Z,6.87
2023-04-15T09:02:44.408Z,7.40
2023-04-15T09:05:18.405Z,7.43
2023-04-15T09:07:51.962Z,7.43
2023-04-15T09:10:25.489Z,8.60
2023-04-15T09:12:58.900Z,8.83
2023-04-15T09:15:33.860Z,9.73
2023-04-15T09:18:05.810Z,9.47
2023-04-15T09:20:44.572Z,9.30
2023-04-15T09:23:19.710Z,11.00
2023-04-15T09:25:54.450Z,9.97
2023-04-15T09:28:31.901Z,11.93
2023-04-15T09:31:06.034Z,10.73
2023-04-15T09:33:54.935Z,12.40
2023-04-15T09:36:29.814Z,13.23
2023-04-15T09:39:03.876Z,14.17
2023-04-15T09:41:35.590Z,15.57
2023-04-15T09:44:07.661Z,15.03
2023-04-15T09:46:50.705Z,13.53
2023-04-15T09:49:23.330Z,16.13
2023-04-15T09:52:05.698Z,14.80
2023-04-15T09:54:42.334Z,15.47
2023-04-15T09:57:15.830Z,14.60
2023-04-15T09:59:47.506Z,18.23
2023-04-15T10:02:21.811Z,21.00
2023-04-15T10:04:55.369Z,19.80
2023-04-15T10:07:29.773Z,21.00
2023-04-15T10:10:05.304Z,20.20
2023-04-15T10:12:38.800Z,22.87
2023-04-15T10:15:18.228Z,23.77
2023-04-15T10:17:51.981Z,25.33
2023-04-15T10:20:26.193Z,28.17
2023-04-15T10:23:02.089Z,24.10
2023-04-15T10:25:35.324Z,25.10
2023-04-15T10:28:08.853Z,25.23
2023-04-15T10:30:43.350Z,29.37
2023-04-15T10:33:20.430Z,29.63
2023-04-15T10:35:54.862Z,31.13
2023-04-15T10:38:43.194Z,32.17
2023-04-15T10:41:20.854Z,34.47
2023-04-15T10:43:55.782Z,38.63
2023-04-15T10:46:40.028Z,35.30
2023-04-15T10:49:16.289Z,34.30
2023-04-15T10:51:58.343Z,42.67
2023-04-15T10:54:39.431Z,35.60
2023-04-15T10:57:18.388Z,40.73
2023-04-15T11:00:11.492Z,41.30
2023-04-15T11:02:53.382Z,46.00
2023-04-15T11:05:44.988Z,36.80
2023-04-15T11:08:17.163Z,44.17
2023-04-15T11:10:59.490Z,48.60
2023-04-15T11:13:36.210Z,47.80
2023-04-15T11:16:08.565Z,49.07
2023-04-15T11:18:40.232Z,47.53
2023-04-15T11:21:12.717Z,50.80
2023-04-15T11:23:46.912Z,46.47
2023-04-15T11:26:20.786Z,46.93
2023-04-15T11:28:52.753Z,54.00
2023-04-15T11:31:28.584Z,55.03
2023-04-15T11:34:02.848Z,54.67
2023-04-15T11:36:35.297Z,50.70
2023-04-15T11:39:09.922Z,51.07
2023-04-15T11:41:44.908Z,50.33
2023-04-15T11:44:22.641Z,58.17
2023-04-15T11:46:56.406Z,56.37
2023-04-15T11:49:33.904Z,57.37
2023-04-15T11:52:13.349Z,50.53
2023-04-15T11:54:45.203Z,54.20
2023-04-15T11:57:19.161Z,57.63
2023-04-15T11:59:50.800Z,55.17
2023-04-15T12:02:31.852Z,58.77
2023-04-15T12:05:07.698Z,61.87
2023-04-15T12:08:00.539Z,50.37
2023-04-15T12:10:34.561Z,58.13
2023-04-15T12:13:13.423Z,56.87
2023-04-15T12:15:46.864Z,59.43
2023-04-15T12:18:26.205Z,55.90
2023-04-15T12:20:58.285Z,61.00
2023-04-15T12:23:31.679Z,58.70
2023-04-15T12:26:08.146Z,62.73
2023-04-15T12:28:44.075Z,62.10
2023-04-15T12:31:18.048Z,61.70
2023-04-15T12:33:53.038Z,67.77
2023-04-15T12:36:24.888Z,66.70
2023-04-15T12:38:56.870Z,64.57
2023-04-15T12:41:28.489Z,59.23
2023-04-15T12:44:02.109Z,59.33
2023-04-15T12:46:34.899Z,69.03
2023-04-15T12:49:06.954Z,65.10
2023-04-15T12:51:38.765Z,60.07
2023-04-15T12:54:10.595Z,63.50
2023-04-15T12:56:42.308Z,59.07
2023-04-15T12:59:15.999Z,58.43
2023-04-15T13:01:48.115Z,64.60
2023-04-15T13:04:23.048Z,55.30
2023-04-15T13:06:54.849Z,54.03
2023-04-15T13:09:27.045Z,54.43
2023-04-15T13:11:59.205Z,54.03
2023-04-15T13:14:32.890Z,52.00
2023-04-15T13:17:10.033Z,54.57
2023-04-15T13:19:41.869Z,48.33
2023-04-15T13:22:15.408Z,46.00
2023-04-15T13:24:47.137Z,50.43
2023-04-15T13:27:18.938Z,46.60
2023-04-15T13:29:51.947Z,43.97
2023-04-15T13:32:23.794Z,42.13
2023-04-15T13:34:56.187Z,40.60
2023-04-15T13:37:32.607Z,42.47
2023-04-15T13:40:07.093Z,43.80
2023-04-15T13:42:37.386Z,40.03
2023-04-15T13:45:13.230Z,39.67
2023-04-15T13:47:45.508Z,38.03
2023-04-15T13:50:17.468Z,37.80
2023-04-15T13:52:49.270Z,44.30
2023-04-15T13:55:23.001Z,39.60
2023-04-15T13:57:58.224Z,39.17
2023-04-15T14:00:31.206Z,43.17
2023-04-15T14:03:03.375Z,37.10
2023-04-15T14:05:35.142Z,38.73
2023-04-15T14:08:08.493Z,37.90
2023-04-15T14:10:44.172Z,35.60
2023-04-15T14:13:16.130Z,32.23
2023-04-15T14:15:50.467Z,39.47
2023-04-15T14:18:22.389Z,34.83
2023-04-15T14:20:54.282Z,32.43
2023-04-15T14:23:26.237Z,32.17
2023-04-15T14:25:58.744Z,32.20
2023-04-15T14:28:30.600Z,33.50
2023-04-15T14:31:05.143Z,30.77
2023-04-15T14:33:37.266Z,30.60
2023-04-15T14:36:11.516Z,29.67
2023-04-15T14:38:46.129Z,29.87
2023-04-15T14:41:20.674Z,34.77
2023-04-15T14:43:52.229Z,29.97
2023-04-15T14:46:26.236Z,28.70
2023-04-15T14:48:58.215Z,26.63
2023-04-15T14:51:31.305Z,27.90
2023-04-15T14:54:03.083Z,31.57
2023-04-15T14:56:36.827Z,29.93
2023-04-15T14:59:08.469Z,24.30
2023-04-15T15:01:41.562Z,25.17
2023-04-15T15:04:15.192Z,25.60
2023-04-15T15:06:49.248Z,24.63
2023-04-15T15:09:23.634Z,23.67
2023-04-15T15:11:56.894Z,24.33
2023-04-15T15:14:28.551Z,25.13
2023-04-15T15:17:01.643Z,24.73
2023-04-15T15:19:33.883Z,25.33
2023-04-15T15:22:06.590Z,23.23
2023-04-15T15:24:38.463Z,23.87
2023-04-15T15:27:10.531Z,21.90
2023-04-15T15:29:42.754Z,21.63
2023-04-15T15:32:16.002Z,23.00
2023-04-15T15:34:47.882Z,24.00
2023-04-15T15:37:19.883Z,21.93
2023-04-15T15:39:52.866Z,22.43
2023-04-15T15:42:24.747Z,21.47
2023-04-15T15:44:56.589Z,21.57
2023-04-15T15:47:29.844Z,21.23
2023-04-15T15:50:05.596Z,24.27
2023-04-15T15:52:38.005Z,18.30
2023-04-15T15:55:11.199Z,21.37
2023-04-15T15:57:44.509Z,21.00
2023-04-15T16:00:23.185Z,19.60
2023-04-15T16:05:35.383Z,18.47
2023-04-15T16:08:09.145Z,19.00
2023-04-15T16:10:41.064Z,21.73
2023-04-15T16:13:14.649Z,18.97
2023-04-15T16:15:46.471Z,19.23
2023-04-15T16:18:19.533Z,18.50
2023-04-15T16:20:51.370Z,21.87
2023-04-15T16:23:23.786Z,21.07
2023-04-15T16:25:55.831Z,18.37
2023-04-15T16:28:27.529Z,19.60
2023-04-15T16:30:59.908Z,21.13
2023-04-15T16:33:33.276Z,19.87
2023-04-15T16:36:07.710Z,20.13
2023-04-15T16:38:39.561Z,19.20
2023-04-15T16:41:11.442Z,20.90
2023-04-15T16:43:43.391Z,19.03
2023-04-15T16:46:15.106Z,18.13
2023-04-15T16:48:48.082Z,17.70
2023-04-15T16:51:19.997Z,19.17
2023-04-15T16:53:51.923Z,20.63
2023-04-15T16:56:23.808Z,19.03
2023-04-15T16:58:55.768Z,17.70
2023-04-15T17:01:27.529Z,18.77
2023-04-15T17:04:00.715Z,17.30
2023-04-15T17:06:32.505Z,17.27
2023-04-15T17:09:04.682Z,18.30
2023-04-15T17:11:38.732Z,16.83
2023-04-15T17:14:11.002Z,17.03
2023-04-15T17:16:43.151Z,16.60
2023-04-15T17:19:16.352Z,16.47
2023-04-15T17:21:48.412Z,16.43
2023-04-15T17:24:20.519Z,15.77
2023-04-15T17:26:52.347Z,16.23
2023-04-15T17:29:24.419Z,17.50
2023-04-15T17:31:56.181Z,15.67
2023-04-15T17:34:50.796Z,15.63
2023-04-15T17:37:22.279Z,15.53
2023-04-15T17:39:54.163Z,15.63
2023-04-15T17:42:26.338Z,15.43
2023-04-15T17:44:58.286Z,17.97
2023-04-15T17:47:31.286Z,18.20
2023-04-15T17:50:04.351Z,15.87
2023-04-15T17:52:36.325Z,18.03
2023-04-15T17:55:08.541Z,15.20
2023-04-15T17:57:40.380Z,17.37
2023-04-15T18:00:17.509Z,16.27
2023-04-15T18:02:49.699Z,14.77
2023-04-15T18:05:23.035Z,16.37
2023-04-15T18:07:56.558Z,16.57
2023-04-15T18:10:28.428Z,16.30
2023-04-15T18:13:00.506Z,17.00
2023-04-15T18:15:32.504Z,17.50
2023-04-15T18:18:04.198Z,16.40
2023-04-15T18:20:37.969Z,17.37
2023-04-15T18:23:09.922Z,18.57
2023-04-15T18:25:43.404Z,18.73
2023-04-15T18:28:15.716Z,17.03
2023-04-15T18:30:47.326Z,15.77
2023-04-15T18:33:19.203Z,16.70
2023-04-15T18:35:52.203Z,18.57
2023-04-15T18:38:24.057Z,16.43
2023-04-15T18:40:56.034Z,17.67
2023-04-15T18:43:27.921Z,17.60
2023-04-15T18:45:59.942Z,18.03
2023-04-15T18:48:31.731Z,18.20
2023-04-15T18:51:04.982Z,16.97
2023-04-15T18:53:36.836Z,18.37
2023-04-15T18:56:08.700Z,18.83
2023-04-15T18:59:27.133Z,19.80
2023-04-15T19:01:32.373Z,18.60
2023-04-15T19:04:04.860Z,18.73
2023-04-15T19:06:37.958Z,18.20
2023-04-15T19:09:11.213Z,19.10
2023-04-15T19:11:43.583Z,18.33
2023-04-15T19:14:15.962Z,17.90
2023-04-15T19:16:47.876Z,16.83
2023-04-15T19:19:19.710Z,18.10
2023-04-15T19:21:53.621Z,16.53
2023-04-15T19:24:25.458Z,18.43
2023-04-15T19:26:57.350Z,16.00
2023-04-15T19:29:29.665Z,17.40
2023-04-15T19:32:01.506Z,17.33
2023-04-15T19:34:33.498Z,16.13
2023-04-15T19:37:06.700Z,17.80
2023-04-15T19:39:38.589Z,16.73
2023-04-15T19:42:10.481Z,17.27
2023-04-15T19:44:42.875Z,18.33
2023-04-15T19:47:14.586Z,19.07
2023-04-15T19:49:46.546Z,16.80
2023-04-15T19:52:19.879Z,16.03
2023-04-15T19:54:51.849Z,16.87
2023-04-15T19:57:23.659Z,16.00
2023-04-15T19:59:55.621Z,17.83
2023-04-15T20:02:27.632Z,16.80
2023-04-15T20:04:59.396Z,16.40
2023-04-15T20:07:33.486Z,18.03
2023-04-15T20:10:12.010Z,17.27
2023-04-15T20:12:51.563Z,15.93
2023-04-15T20:15:25.072Z,17.90
2023-04-15T20:17:56.941Z,17.77
2023-04-15T20:20:28.819Z,16.90
2023-04-15T20:23:01.938Z,19.13
2023-04-15T20:25:33.653Z,18.60
2023-04-15T20:28:05.455Z,19.70
2023-04-15T20:30:37.980Z,17.53
2023-04-15T20:33:10.455Z,18.53
2023-04-15T20:35:42.403Z,19.23
2023-04-15T20:38:16.317Z,22.37
2023-04-15T20:40:48.245Z,22.33
2023-04-15T20:43:21.390Z,18.70
2023-04-15T20:45:53.994Z,16.60
2023-04-15T20:48:26.116Z,18.30
2023-04-15T20:50:57.741Z,17.23
2023-04-15T20:53:30.688Z,18.67
2023-04-15T20:56:02.613Z,18.93
2023-04-15T20:58:34.431Z,18.70
2023-04-15T21:01:06.358Z,17.73
2023-04-15T21:03:38.318Z,21.57
2023-04-15T21:06:10.061Z,19.20
2023-04-15T21:08:43.025Z,22.27
2023-04-15T21:11:24.316Z,19.33
2023-04-15T21:14:09.140Z,22.97
2023-04-15T21:16:41.099Z,20.70
2023-04-15T21:19:12.842Z,21.20
2023-04-15T21:21:44.758Z,25.93
2023-04-15T21:24:17.753Z,24.60
2023-04-15T21:26:49.645Z,22.30
2023-04-15T21:29:21.538Z,22.50
2023-04-15T21:31:53.386Z,21.93
2023-04-15T21:34:25.220Z,21.03
2023-04-15T21:36:57.206Z,23.23
2023-04-15T21:39:30.406Z,22.50
2023-04-15T21:42:02.770Z,20.23
2023-04-15T21:44:34.378Z,22.97
2023-04-15T21:47:06.459Z,21.57
2023-04-15T21:49:38.025Z,20.03
2023-04-15T21:52:09.768Z,22.70
2023-04-15T21:54:42.690Z,21.20
2023-04-15T21:57:14.731Z,23.23
2023-04-15T21:59:46.511Z,23.40
2023-04-15T22:02:18.463Z,22.53
2023-04-15T22:04:50.818Z,21.47
2023-04-15T22:07:22.750Z,23.73
2023-04-15T22:09:56.419Z,26.53
2023-04-15T22:12:28.265Z,21.77
2023-04-15T22:15:00.634Z,23.20
2023-04-15T22:17:32.488Z,26.63
2023-04-15T22:20:04.381Z,25.00
2023-04-15T22:22:43.489Z,24.37
2023-04-15T22:25:17.844Z,23.77
2023-04-15T22:27:49.985Z,25.97
2023-04-15T22:30:21.644Z,22.90
2023-04-15T22:32:53.513Z,24.67
2023-04-15T22:35:25.336Z,25.23
2023-04-15T22:37:57.629Z,27.67
2023-04-15T22:40:31.248Z,24.03
2023-04-15T22:43:03.180Z,28.83
2023-04-15T22:45:35.973Z,27.20
2023-04-15T22:48:07.535Z,26.80
2023-04-15T22:50:42.293Z,28.97
2023-04-15T22:53:15.924Z,26.43
2023-04-15T22:55:53.856Z,25.80
2023-04-15T22:58:25.571Z,28.63
2023-04-15T23:00:57.482Z,27.53
2023-04-15T23:03:29.156Z,26.07
2023-04-15T23:06:00.910Z,26.70
2023-04-15T23:08:32.592Z,26.93
2023-04-15T23:11:05.936Z,26.87
2023-04-15T23:13:37.644Z,28.60
2023-04-15T23:16:11.120Z,27.60
2023-04-15T23:18:42.960Z,28.83
2023-04-15T23:21:14.786Z,26.33
2023-04-15T23:23:46.646Z,30.87
2023-04-15T23:26:19.646Z,28.73
2023-04-15T23:28:51.463Z,29.97
2023-04-15T23:31:23.293Z,30.30
2023-04-15T23:33:55.222Z,30.40
2023-04-15T23:36:27.215Z,31.70
2023-04-15T23:38:59.059Z,31.13
2023-04-15T23:41:32.254Z,30.47
2023-04-15T23:44:04.105Z,30.23
2023-04-15T23:46:36.123Z,30.37
2023-04-15T23:49:08.412Z,33.57
2023-04-15T23:51:40.192Z,33.07
2023-04-15T23:54:11.955Z,32.77
2023-04-15T23:56:46.123Z,29.97
2023-04-15T23:59:17.768Z,37.03
